sensor_id;sensor_type;location;lat;lon;timestamp;pressure;altitude;pressure_sealevel;temperature;humidity
36234;BME280;43467;50.890;5.982;2023-11-19T00:00:25;99586.69;;;12.68;100.00
36234;BME280;43467;50.890;5.982;2023-11-19T00:02:51;99601.47;;;12.72;100.00
36234;BME280;43467;50.890;5.982;2023-11-19T00:05:16;99559.31;;;12.53;100.00
36234;BME280;43467;50.890;5.982;2023-11-19T00:07:42;99589.41;;;12.53;100.00
36234;BME280;43467;50.890;5.982;2023-11-19T00:10:13;99598.00;;;12.57;100.00
36234;BME280;43467;50.890;5.982;2023-11-19T00:12:40;99582.28;;;12.54;100.00
36234;BME280;43467;50.890;5.982;2023-11-19T00:15:07;99610.94;;;12.76;100.00
36234;BME280;43467;50.890;5.982;2023-11-19T00:17:37;99572.88;;;12.63;100.00
36234;BME280;43467;50.890;5.982;2023-11-19T00:20:05;99589.56;;;12.65;100.00
36234;BME280;43467;50.890;5.982;2023-11-19T00:22:31;99591.06;;;12.69;100.00
36234;BME280;43467;50.890;5.982;2023-11-19T00:24:56;99576.69;;;12.58;100.00
36234;BME280;43467;50.890;5.982;2023-11-19T00:27:22;99594.66;;;12.68;100.00
36234;BME280;43467;50.890;5.982;2023-11-19T00:29:47;99604.81;;;12.75;100.00
36234;BME280;43467;50.890;5.982;2023-11-19T00:32:13;99613.22;;;12.82;100.00
36234;BME280;43467;50.890;5.982;2023-11-19T00:34:38;99580.63;;;12.66;100.00
36234;BME280;43467;50.890;5.982;2023-11-19T00:37:04;99566.56;;;12.51;100.00
36234;BME280;43467;50.890;5.982;2023-11-19T00:39:29;99608.97;;;12.79;100.00
36234;BME280;43467;50.890;5.982;2023-11-19T00:41:56;99576.19;;;12.66;100.00
36234;BME280;43467;50.890;5.982;2023-11-19T00:44:22;99579.13;;;12.62;100.00
36234;BME280;43467;50.890;5.982;2023-11-19T00:46:48;99576.19;;;12.66;100.00
36234;BME280;43467;50.890;5.982;2023-11-19T00:49:14;99548.50;;;12.56;100.00
36234;BME280;43467;50.890;5.982;2023-11-19T00:51:40;99583.09;;;12.69;100.00
36234;BME280;43467;50.890;5.982;2023-11-19T00:54:06;99583.06;;;12.83;100.00
36234;BME280;43467;50.890;5.982;2023-11-19T00:56:31;99593.47;;;12.86;100.00
36234;BME280;43467;50.890;5.982;2023-11-19T00:58:57;99542.69;;;12.64;100.00
36234;BME280;43467;50.890;5.982;2023-11-19T01:01:22;99571.59;;;12.82;100.00
36234;BME280;43467;50.890;5.982;2023-11-19T01:03:48;99572.22;;;12.86;100.00
36234;BME280;43467;50.890;5.982;2023-11-19T01:06:13;99553.94;;;12.81;100.00
36234;BME280;43467;50.890;5.982;2023-11-19T01:08:43;99586.13;;;13.03;100.00
36234;BME280;43467;50.890;5.982;2023-11-19T01:11:19;99590.66;;;13.01;100.00
36234;BME280;43467;50.890;5.982;2023-11-19T01:13:46;99567.66;;;12.88;100.00
36234;BME280;43467;50.890;5.982;2023-11-19T01:16:11;99578.31;;;13.00;100.00
36234;BME280;43467;50.890;5.982;2023-11-19T01:18:38;99576.94;;;12.95;100.00
36234;BME280;43467;50.890;5.982;2023-11-19T01:21:06;99560.00;;;12.83;100.00
36234;BME280;43467;50.890;5.982;2023-11-19T01:23:31;99553.94;;;12.81;100.00
36234;BME280;43467;50.890;5.982;2023-11-19T01:25:58;99545.59;;;12.73;100.00
36234;BME280;43467;50.890;5.982;2023-11-19T01:28:23;99603.09;;;13.15;100.00
36234;BME280;43467;50.890;5.982;2023-11-19T01:30:52;99569.53;;;13.00;100.00
36234;BME280;43467;50.890;5.982;2023-11-19T01:33:18;99590.44;;;13.19;100.00
36234;BME280;43467;50.890;5.982;2023-11-19T01:35:43;99583.31;;;13.19;100.00
36234;BME280;43467;50.890;5.982;2023-11-19T01:38:09;99589.19;;;13.24;100.00
36234;BME280;43467;50.890;5.982;2023-11-19T01:40:35;99566.44;;;13.06;100.00
36234;BME280;43467;50.890;5.982;2023-11-19T01:43:02;99591.72;;;13.26;100.00
36234;BME280;43467;50.890;5.982;2023-11-19T01:45:29;99576.44;;;13.02;100.00
36234;BME280;43467;50.890;5.982;2023-11-19T01:47:56;99605.16;;;13.24;100.00
36234;BME280;43467;50.890;5.982;2023-11-19T01:50:23;99581.91;;;13.14;100.00
36234;BME280;43467;50.890;5.982;2023-11-19T01:52:52;99530.50;;;13.00;100.00
36234;BME280;43467;50.890;5.982;2023-11-19T01:55:18;99540.25;;;13.14;100.00
36234;BME280;43467;50.890;5.982;2023-11-19T01:57:45;99549.72;;;13.18;100.00
36234;BME280;43467;50.890;5.982;2023-11-19T02:00:12;99568.34;;;13.31;100.00
36234;BME280;43467;50.890;5.982;2023-11-19T02:02:39;99503.19;;;12.98;100.00
36234;BME280;43467;50.890;5.982;2023-11-19T02:05:06;99521.84;;;13.11;100.00
36234;BME280;43467;50.890;5.982;2023-11-19T02:07:32;99548.34;;;13.25;100.00
36234;BME280;43467;50.890;5.982;2023-11-19T02:09:57;99558.66;;;13.30;100.00
36234;BME280;43467;50.890;5.982;2023-11-19T02:12:26;99554.41;;;13.27;100.00
36234;BME280;43467;50.890;5.982;2023-11-19T02:14:54;99524.56;;;13.10;100.00
36234;BME280;43467;50.890;5.982;2023-11-19T02:17:28;99514.13;;;12.94;100.00
36234;BME280;43467;50.890;5.982;2023-11-19T02:19:56;99542.81;;;13.16;100.00
36234;BME280;43467;50.890;5.982;2023-11-19T02:22:22;99566.66;;;13.30;100.00
36234;BME280;43467;50.890;5.982;2023-11-19T02:24:51;99558.13;;;13.25;100.00
36234;BME280;43467;50.890;5.982;2023-11-19T02:27:39;99511.47;;;12.94;100.00
36234;BME280;43467;50.890;5.982;2023-11-19T02:30:05;99536.16;;;13.09;100.00
36234;BME280;43467;50.890;5.982;2023-11-19T02:32:34;99558.13;;;13.25;100.00
36234;BME280;43467;50.890;5.982;2023-11-19T02:34:59;99543.53;;;13.18;100.00
36234;BME280;43467;50.890;5.982;2023-11-19T02:37:25;99512.16;;;13.10;100.00
36234;BME280;43467;50.890;5.982;2023-11-19T02:39:59;99519.19;;;13.11;100.00
36234;BME280;43467;50.890;5.982;2023-11-19T02:42:34;99541.13;;;13.27;100.00
36234;BME280;43467;50.890;5.982;2023-11-19T02:45:01;99539.84;;;13.20;100.00
36234;BME280;43467;50.890;5.982;2023-11-19T02:47:27;99542.41;;;13.34;100.00
36234;BME280;43467;50.890;5.982;2023-11-19T02:49:55;99520.25;;;13.21;100.00
36234;BME280;43467;50.890;5.982;2023-11-19T02:52:21;99552.44;;;13.43;100.00
36234;BME280;43467;50.890;5.982;2023-11-19T02:54:47;99527.31;;;13.35;100.00
36234;BME280;43467;50.890;5.982;2023-11-19T02:57:12;99500.28;;;13.16;100.00
36234;BME280;43467;50.890;5.982;2023-11-19T02:59:39;99484.72;;;13.10;100.00
36234;BME280;43467;50.890;5.982;2023-11-19T03:02:07;99499.97;;;13.20;100.00
36234;BME280;43467;50.890;5.982;2023-11-19T03:04:37;99541.88;;;13.42;100.00
36234;BME280;43467;50.890;5.982;2023-11-19T03:07:07;99497.19;;;13.22;100.00
36234;BME280;43467;50.890;5.982;2023-11-19T03:09:33;99496.34;;;13.21;100.00
36234;BME280;43467;50.890;5.982;2023-11-19T03:12:00;99521.16;;;13.34;100.00
36234;BME280;43467;50.890;5.982;2023-11-19T03:14:26;99505.16;;;13.22;100.00
36234;BME280;43467;50.890;5.982;2023-11-19T03:16:51;99505.28;;;13.20;99.89
36234;BME280;43467;50.890;5.982;2023-11-19T03:19:17;99551.13;;;13.49;100.00
36234;BME280;43467;50.890;5.982;2023-11-19T03:21:43;99502.81;;;13.17;99.30
36234;BME280;43467;50.890;5.982;2023-11-19T03:24:10;99519.66;;;13.30;98.61
36234;BME280;43467;50.890;5.982;2023-11-19T03:26:35;99543.06;;;13.50;98.02
36234;BME280;43467;50.890;5.982;2023-11-19T03:29:02;99531.03;;;13.45;97.10
36234;BME280;43467;50.890;5.982;2023-11-19T03:31:28;99545.19;;;13.45;96.61
36234;BME280;43467;50.890;5.982;2023-11-19T03:33:54;99497.97;;;13.24;96.36
36234;BME280;43467;50.890;5.982;2023-11-19T03:36:19;99505.94;;;13.24;95.94
36234;BME280;43467;50.890;5.982;2023-11-19T03:38:45;99540.00;;;13.44;95.88
36234;BME280;43467;50.890;5.982;2023-11-19T03:41:15;99534.03;;;13.40;95.23
36234;BME280;43467;50.890;5.982;2023-11-19T03:43:42;99531.13;;;13.31;94.43
36234;BME280;43467;50.890;5.982;2023-11-19T03:48:43;99542.19;;;13.37;94.26
36234;BME280;43467;50.890;5.982;2023-11-19T03:51:09;99526.22;;;13.25;94.31
36234;BME280;43467;50.890;5.982;2023-11-19T03:53:34;99538.47;;;13.27;94.23
36234;BME280;43467;50.890;5.982;2023-11-19T03:56:01;99543.47;;;13.32;94.74
36234;BME280;43467;50.890;5.982;2023-11-19T03:58:26;99528.88;;;13.25;95.18
36234;BME280;43467;50.890;5.982;2023-11-19T04:00:51;99489.38;;;13.06;94.91
36234;BME280;43467;50.890;5.982;2023-11-19T04:03:17;99520.25;;;13.21;95.11
36234;BME280;43467;50.890;5.982;2023-11-19T04:05:44;99521.34;;;13.19;95.36
36234;BME280;43467;50.890;5.982;2023-11-19T04:08:10;99490.25;;;13.07;95.89
36234;BME280;43467;50.890;5.982;2023-11-19T04:10:35;99480.34;;;12.96;96.40
36234;BME280;43467;50.890;5.982;2023-11-19T04:13:01;99504.78;;;13.01;96.96
36234;BME280;43467;50.890;5.982;2023-11-19T04:15:27;99519.25;;;13.10;97.45
36234;BME280;43467;50.890;5.982;2023-11-19T04:17:54;99568.75;;;13.25;97.50
36234;BME280;43467;50.890;5.982;2023-11-19T04:20:19;99542.25;;;13.11;97.09
36234;BME280;43467;50.890;5.982;2023-11-19T04:22:45;99545.72;;;12.98;96.81
36234;BME280;43467;50.890;5.982;2023-11-19T04:25:11;99543.56;;;12.91;96.21
36234;BME280;43467;50.890;5.982;2023-11-19T04:27:36;99560.06;;;13.09;95.71
36234;BME280;43467;50.890;5.982;2023-11-19T04:30:02;99524.84;;;12.92;95.23
36234;BME280;43467;50.890;5.982;2023-11-19T04:32:28;99558.47;;;13.06;94.64
36234;BME280;43467;50.890;5.982;2023-11-19T04:34:54;99573.22;;;13.12;94.27
36234;BME280;43467;50.890;5.982;2023-11-19T04:37:20;99553.97;;;12.94;93.47
36234;BME280;43467;50.890;5.982;2023-11-19T04:39:45;99578.03;;;13.05;93.28
36234;BME280;43467;50.890;5.982;2023-11-19T04:42:11;99558.50;;;12.79;92.91
36234;BME280;43467;50.890;5.982;2023-11-19T04:44:37;99539.94;;;12.65;93.09
36234;BME280;43467;50.890;5.982;2023-11-19T04:47:03;99584.78;;;12.96;92.98
36234;BME280;43467;50.890;5.982;2023-11-19T04:49:29;99550.41;;;12.81;93.58
36234;BME280;43467;50.890;5.982;2023-11-19T04:51:55;99585.88;;;12.94;92.96
36234;BME280;43467;50.890;5.982;2023-11-19T04:54:21;99579.13;;;12.88;92.85
36234;BME280;43467;50.890;5.982;2023-11-19T04:56:47;99557.00;;;12.75;92.56
36234;BME280;43467;50.890;5.982;2023-11-19T04:59:13;99579.56;;;12.82;92.45
36234;BME280;43467;50.890;5.982;2023-11-19T05:01:38;99567.16;;;12.69;92.35
36234;BME280;43467;50.890;5.982;2023-11-19T05:04:07;99510.91;;;12.35;92.12
36234;BME280;43467;50.890;5.982;2023-11-19T05:06:37;99538.78;;;12.42;92.13
36234;BME280;43467;50.890;5.982;2023-11-19T05:09:03;99521.34;;;12.38;91.54
36234;BME280;43467;50.890;5.982;2023-11-19T05:11:30;99596.53;;;12.80;91.34
36234;BME280;43467;50.890;5.982;2023-11-19T05:13:56;99526.00;;;12.35;91.16
36234;BME280;43467;50.890;5.982;2023-11-19T05:16:25;99556.75;;;12.51;91.15
36234;BME280;43467;50.890;5.982;2023-11-19T05:18:50;99564.16;;;12.61;90.90
36234;BME280;43467;50.890;5.982;2023-11-19T05:21:16;99591.25;;;12.66;91.11
36234;BME280;43467;50.890;5.982;2023-11-19T05:23:43;99604.03;;;12.73;91.00
36234;BME280;43467;50.890;5.982;2023-11-19T05:26:08;99609.84;;;12.66;90.54
36234;BME280;43467;50.890;5.982;2023-11-19T05:28:38;99612.00;;;12.73;90.98
36234;BME280;43467;50.890;5.982;2023-11-19T05:31:05;99617.88;;;12.78;90.31
36234;BME280;43467;50.890;5.982;2023-11-19T05:33:31;99593.13;;;12.78;90.17
36234;BME280;43467;50.890;5.982;2023-11-19T05:35:56;99581.22;;;12.56;89.60
36234;BME280;43467;50.890;5.982;2023-11-19T05:38:22;99622.06;;;12.82;89.31
36234;BME280;43467;50.890;5.982;2023-11-19T05:40:48;99599.03;;;12.69;89.43
36234;BME280;43467;50.890;5.982;2023-11-19T05:43:14;99626.31;;;12.85;89.36
36234;BME280;43467;50.890;5.982;2023-11-19T05:45:42;99609.91;;;12.78;89.70
36234;BME280;43467;50.890;5.982;2023-11-19T05:48:07;99589.84;;;12.60;89.68
36234;BME280;43467;50.890;5.982;2023-11-19T05:50:35;99622.72;;;12.86;90.05
36234;BME280;43467;50.890;5.982;2023-11-19T05:53:00;99601.97;;;12.78;90.00
36234;BME280;43467;50.890;5.982;2023-11-19T05:55:26;99615.59;;;12.86;90.22
36234;BME280;43467;50.890;5.982;2023-11-19T05:57:53;99578.47;;;12.58;90.61
36234;BME280;43467;50.890;5.982;2023-11-19T06:00:19;99591.56;;;12.61;90.36
36234;BME280;43467;50.890;5.982;2023-11-19T06:02:45;99567.75;;;12.59;90.32
36234;BME280;43467;50.890;5.982;2023-11-19T06:05:10;99627.06;;;12.87;90.13
36234;BME280;43467;50.890;5.982;2023-11-19T06:07:36;99600.53;;;12.73;90.07
36234;BME280;43467;50.890;5.982;2023-11-19T06:10:04;99615.97;;;12.80;89.62
36234;BME280;43467;50.890;5.982;2023-11-19T06:12:33;99627.59;;;12.92;89.87
36234;BME280;43467;50.890;5.982;2023-11-19T06:15:04;99587.84;;;12.64;89.43
36234;BME280;43467;50.890;5.982;2023-11-19T06:17:30;99606.25;;;12.67;89.22
36234;BME280;43467;50.890;5.982;2023-11-19T06:19:55;99595.44;;;12.70;88.94
36234;BME280;43467;50.890;5.982;2023-11-19T06:22:21;99576.03;;;12.55;89.09
36234;BME280;43467;50.890;5.982;2023-11-19T06:24:46;99634.47;;;12.82;88.98
36234;BME280;43467;50.890;5.982;2023-11-19T06:27:13;99623.66;;;12.85;88.25
36234;BME280;43467;50.890;5.982;2023-11-19T06:29:38;99607.47;;;12.75;87.79
36234;BME280;43467;50.890;5.982;2023-11-19T06:32:06;99618.38;;;12.71;87.84
36234;BME280;43467;50.890;5.982;2023-11-19T06:34:33;99592.06;;;12.53;87.96
36234;BME280;43467;50.890;5.982;2023-11-19T06:36:59;99619.91;;;12.61;88.38
36234;BME280;43467;50.890;5.982;2023-11-19T06:39:25;99589.41;;;12.39;88.61
36234;BME280;43467;50.890;5.982;2023-11-19T06:41:51;99625.78;;;12.51;88.56
36234;BME280;43467;50.890;5.982;2023-11-19T06:44:17;99618.88;;;12.49;88.59
36234;BME280;43467;50.890;5.982;2023-11-19T06:46:43;99627.25;;;12.43;88.31
36234;BME280;43467;50.890;5.982;2023-11-19T06:49:08;99605.72;;;12.33;88.69
36234;BME280;43467;50.890;5.982;2023-11-19T06:51:34;99617.19;;;12.48;88.60
36234;BME280;43467;50.890;5.982;2023-11-19T06:54:00;99599.13;;;12.26;88.39
36234;BME280;43467;50.890;5.982;2023-11-19T06:56:26;99603.81;;;12.35;87.95
36234;BME280;43467;50.890;5.982;2023-11-19T06:58:52;99606.31;;;12.38;87.97
36234;BME280;43467;50.890;5.982;2023-11-19T07:01:19;99620.44;;;12.39;87.91
36234;BME280;43467;50.890;5.982;2023-11-19T07:03:48;99582.25;;;12.13;87.52
36234;BME280;43467;50.890;5.982;2023-11-19T07:06:14;99625.06;;;12.49;87.37
36234;BME280;43467;50.890;5.982;2023-11-19T07:08:41;99552.09;;;12.00;86.92
36234;BME280;43467;50.890;5.982;2023-11-19T07:11:07;99631.59;;;12.44;86.07
36234;BME280;43467;50.890;5.982;2023-11-19T07:13:35;99637.88;;;12.43;86.13
36234;BME280;43467;50.890;5.982;2023-11-19T07:16:00;99648.66;;;12.40;86.48
36234;BME280;43467;50.890;5.982;2023-11-19T07:18:26;99588.09;;;12.04;86.48
36234;BME280;43467;50.890;5.982;2023-11-19T07:20:52;99612.09;;;12.17;86.64
36234;BME280;43467;50.890;5.982;2023-11-19T07:23:18;99612.56;;;12.09;87.07
36234;BME280;43467;50.890;5.982;2023-11-19T07:25:44;99636.16;;;12.28;87.46
36234;BME280;43467;50.890;5.982;2023-11-19T07:28:12;99663.19;;;12.34;87.86
36234;BME280;43467;50.890;5.982;2023-11-19T07:30:38;99625.56;;;12.14;88.27
36234;BME280;43467;50.890;5.982;2023-11-19T07:33:04;99598.72;;;11.90;88.48
36234;BME280;43467;50.890;5.982;2023-11-19T07:35:30;99672.56;;;12.26;88.77
36234;BME280;43467;50.890;5.982;2023-11-19T07:37:59;99643.16;;;12.00;88.58
36234;BME280;43467;50.890;5.982;2023-11-19T07:40:24;99650.69;;;12.22;88.46
36234;BME280;43467;50.890;5.982;2023-11-19T07:42:50;99654.63;;;12.15;88.50
36234;BME280;43467;50.890;5.982;2023-11-19T07:45:16;99595.84;;;11.79;87.66
36234;BME280;43467;50.890;5.982;2023-11-19T07:47:43;99685.56;;;12.30;87.54
36234;BME280;43467;50.890;5.982;2023-11-19T07:50:12;99629.59;;;11.91;87.07
36234;BME280;43467;50.890;5.982;2023-11-19T07:52:42;99683.47;;;12.21;86.59
36234;BME280;43467;50.890;5.982;2023-11-19T07:55:07;99657.50;;;11.98;87.01
36234;BME280;43467;50.890;5.982;2023-11-19T07:57:33;99628.56;;;11.93;86.37
36234;BME280;43467;50.890;5.982;2023-11-19T07:59:59;99649.59;;;11.96;86.47
36234;BME280;43467;50.890;5.982;2023-11-19T08:02:26;99692.44;;;12.19;86.10
36234;BME280;43467;50.890;5.982;2023-11-19T08:04:51;99667.63;;;12.05;86.08
36234;BME280;43467;50.890;5.982;2023-11-19T08:07:20;99670.75;;;11.98;85.49
36234;BME280;43467;50.890;5.982;2023-11-19T08:09:46;99668.19;;;11.96;85.24
36234;BME280;43467;50.890;5.982;2023-11-19T08:12:12;99648.16;;;11.91;85.60
36234;BME280;43467;50.890;5.982;2023-11-19T08:14:40;99663.56;;;12.14;85.40
36234;BME280;43467;50.890;5.982;2023-11-19T08:17:05;99641.66;;;11.96;85.06
36234;BME280;43467;50.890;5.982;2023-11-19T08:19:31;99648.00;;;12.08;84.90
36234;BME280;43467;50.890;5.982;2023-11-19T08:21:57;99648.19;;;12.05;84.27
36234;BME280;43467;50.890;5.982;2023-11-19T08:24:23;99645.34;;;12.08;84.16
36234;BME280;43467;50.890;5.982;2023-11-19T08:26:48;99687.81;;;12.36;84.17
36234;BME280;43467;50.890;5.982;2023-11-19T08:29:14;99623.81;;;11.98;83.58
36234;BME280;43467;50.890;5.982;2023-11-19T08:31:40;99645.94;;;12.13;83.44
36234;BME280;43467;50.890;5.982;2023-11-19T08:34:05;99698.38;;;12.38;83.42
36234;BME280;43467;50.890;5.982;2023-11-19T08:36:34;99646.88;;;12.12;83.26
36234;BME280;43467;50.890;5.982;2023-11-19T08:38:59;99672.34;;;12.15;82.92
36234;BME280;43467;50.890;5.982;2023-11-19T08:41:25;99698.16;;;12.41;82.87
36234;BME280;43467;50.890;5.982;2023-11-19T08:43:51;99672.28;;;12.16;83.05
36234;BME280;43467;50.890;5.982;2023-11-19T08:46:16;99673.78;;;12.20;82.84
36234;BME280;43467;50.890;5.982;2023-11-19T08:48:42;99711.25;;;12.44;82.54
36234;BME280;43467;50.890;5.982;2023-11-19T08:51:12;99674.25;;;12.27;82.76
36234;BME280;43467;50.890;5.982;2023-11-19T08:53:37;99694.84;;;12.51;82.87
36234;BME280;43467;50.890;5.982;2023-11-19T08:56:03;99676.28;;;12.37;82.66
36234;BME280;43467;50.890;5.982;2023-11-19T08:58:29;99677.13;;;12.38;81.76
36234;BME280;43467;50.890;5.982;2023-11-19T09:00:54;99700.34;;;12.48;81.52
36234;BME280;43467;50.890;5.982;2023-11-19T09:03:20;99700.16;;;12.51;81.76
36234;BME280;43467;50.890;5.982;2023-11-19T09:05:46;99694.47;;;12.57;81.45
36234;BME280;43467;50.890;5.982;2023-11-19T09:08:11;99682.53;;;12.50;81.06
36234;BME280;43467;50.890;5.982;2023-11-19T09:10:37;99627.94;;;12.18;81.17
36234;BME280;43467;50.890;5.982;2023-11-19T09:13:03;99674.38;;;12.53;81.07
36234;BME280;43467;50.890;5.982;2023-11-19T09:15:29;99655.03;;;12.37;81.31
36234;BME280;43467;50.890;5.982;2023-11-19T09:17:55;99657.66;;;12.51;80.75
36234;BME280;43467;50.890;5.982;2023-11-19T09:20:20;99705.44;;;12.80;80.53
36234;BME280;43467;50.890;5.982;2023-11-19T09:22:45;99658.72;;;12.49;80.61
36234;BME280;43467;50.890;5.982;2023-11-19T09:25:11;99671.91;;;12.50;80.65
36234;BME280;43467;50.890;5.982;2023-11-19T09:27:37;99665.63;;;12.51;80.94
36234;BME280;43467;50.890;5.982;2023-11-19T09:30:07;99699.09;;;12.68;81.04
36234;BME280;43467;50.890;5.982;2023-11-19T09:32:33;99693.41;;;12.60;80.46
36234;BME280;43467;50.890;5.982;2023-11-19T09:34:59;99667.47;;;12.51;80.41
36234;BME280;43467;50.890;5.982;2023-11-19T09:37:25;99709.81;;;12.81;80.60
36234;BME280;43467;50.890;5.982;2023-11-19T09:39:51;99688.88;;;12.62;80.27
36234;BME280;43467;50.890;5.982;2023-11-19T09:42:19;99689.91;;;12.74;80.44
36234;BME280;43467;50.890;5.982;2023-11-19T09:44:44;99649.91;;;12.63;79.55
36234;BME280;43467;50.890;5.982;2023-11-19T09:47:11;99657.56;;;12.67;79.77
36234;BME280;43467;50.890;5.982;2023-11-19T09:49:39;99687.91;;;12.91;79.89
36234;BME280;43467;50.890;5.982;2023-11-19T09:52:05;99700.13;;;12.94;79.10
36234;BME280;43467;50.890;5.982;2023-11-19T09:54:31;99661.69;;;12.85;79.01
36234;BME280;43467;50.890;5.982;2023-11-19T09:56:58;99610.16;;;12.61;79.17
36234;BME280;43467;50.890;5.982;2023-11-19T09:59:29;99661.84;;;12.96;78.82
36234;BME280;43467;50.890;5.982;2023-11-19T10:01:56;99690.06;;;12.99;78.35
36234;BME280;43467;50.890;5.982;2023-11-19T10:04:22;99639.44;;;12.74;78.99
36234;BME280;43467;50.890;5.982;2023-11-19T10:06:51;99643.69;;;12.76;78.08
36234;BME280;43467;50.890;5.982;2023-11-19T10:09:17;99608.16;;;12.65;78.08
36234;BME280;43467;50.890;5.982;2023-11-19T10:11:42;99628.09;;;12.84;76.58
36234;BME280;43467;50.890;5.982;2023-11-19T10:14:09;99610.91;;;12.63;76.37
36234;BME280;43467;50.890;5.982;2023-11-19T10:16:35;99645.09;;;12.82;77.23
36234;BME280;43467;50.890;5.982;2023-11-19T10:19:00;99659.31;;;12.95;78.10
36234;BME280;43467;50.890;5.982;2023-11-19T10:21:26;99672.50;;;12.96;81.63
36234;BME280;43467;50.890;5.982;2023-11-19T10:23:56;99669.38;;;12.90;82.65
36234;BME280;43467;50.890;5.982;2023-11-19T10:26:25;99650.06;;;12.74;81.69
36234;BME280;43467;50.890;5.982;2023-11-19T10:28:51;99674.59;;;12.91;81.28
36234;BME280;43467;50.890;5.982;2023-11-19T10:31:18;99642.28;;;12.71;80.35
36234;BME280;43467;50.890;5.982;2023-11-19T10:33:45;99685.19;;;13.05;79.75
36234;BME280;43467;50.890;5.982;2023-11-19T10:36:14;99649.38;;;12.84;78.48
36234;BME280;43467;50.890;5.982;2023-11-19T10:38:40;99673.25;;;12.98;78.50
36234;BME280;43467;50.890;5.982;2023-11-19T10:41:06;99627.81;;;12.89;77.03
36234;BME280;43467;50.890;5.982;2023-11-19T10:43:42;99690.22;;;13.24;76.21
36234;BME280;43467;50.890;5.982;2023-11-19T10:46:13;99661.19;;;13.07;75.75
36234;BME280;43467;50.890;5.982;2023-11-19T10:48:40;99692.09;;;13.22;76.11
36234;BME280;43467;50.890;5.982;2023-11-19T10:51:07;99646.47;;;13.01;76.38
36234;BME280;43467;50.890;5.982;2023-11-19T10:53:37;99657.59;;;13.08;76.11
36234;BME280;43467;50.890;5.982;2023-11-19T10:56:06;99716.59;;;13.27;76.73
36234;BME280;43467;50.890;5.982;2023-11-19T10:58:36;99704.25;;;13.26;77.87
36234;BME280;43467;50.890;5.982;2023-11-19T11:01:19;99663.06;;;13.05;77.51
36234;BME280;43467;50.890;5.982;2023-11-19T11:03:46;99639.94;;;12.93;78.54
36234;BME280;43467;50.890;5.982;2023-11-19T11:06:13;99643.16;;;12.98;78.38
36234;BME280;43467;50.890;5.982;2023-11-19T11:08:39;99652.44;;;13.05;78.82
36234;BME280;43467;50.890;5.982;2023-11-19T11:11:06;99659.56;;;13.04;79.29
36234;BME280;43467;50.890;5.982;2023-11-19T11:13:34;99671.44;;;13.13;79.59
36234;BME280;43467;50.890;5.982;2023-11-19T11:16:00;99635.03;;;12.87;79.43
36234;BME280;43467;50.890;5.982;2023-11-19T11:18:27;99668.78;;;13.13;79.89
36234;BME280;43467;50.890;5.982;2023-11-19T11:21:04;99662.91;;;13.08;80.18
36234;BME280;43467;50.890;5.982;2023-11-19T11:26:09;99674.44;;;13.21;79.17
36234;BME280;43467;50.890;5.982;2023-11-19T11:28:46;99612.22;;;12.97;79.18
36234;BME280;43467;50.890;5.982;2023-11-19T11:39:28;99625.09;;;13.17;78.32
36234;BME280;43467;50.890;5.982;2023-11-19T11:45:06;99658.50;;;13.48;77.57
36234;BME280;43467;50.890;5.982;2023-11-19T11:50:22;99640.84;;;13.60;78.02
36234;BME280;43467;50.890;5.982;2023-11-19T11:55:36;99651.81;;;13.55;77.60
36234;BME280;43467;50.890;5.982;2023-11-19T11:58:05;99623.28;;;13.44;77.89
36234;BME280;43467;50.890;5.982;2023-11-19T12:00:32;99615.31;;;13.44;78.04
36234;BME280;43467;50.890;5.982;2023-11-19T12:03:02;99603.22;;;13.26;78.44
36234;BME280;43467;50.890;5.982;2023-11-19T12:05:29;99625.25;;;13.28;78.51
36234;BME280;43467;50.890;5.982;2023-11-19T12:07:56;99631.06;;;13.21;78.58
36234;BME280;43467;50.890;5.982;2023-11-19T12:10:25;99620.75;;;13.16;79.04
36234;BME280;43467;50.890;5.982;2023-11-19T12:12:58;99638.94;;;13.22;79.39
36234;BME280;43467;50.890;5.982;2023-11-19T12:15:24;99648.75;;;13.34;79.78
36234;BME280;43467;50.890;5.982;2023-11-19T12:17:52;99612.56;;;13.19;79.84
36234;BME280;43467;50.890;5.982;2023-11-19T12:20:19;99620.03;;;13.27;79.88
36234;BME280;43467;50.890;5.982;2023-11-19T12:22:46;99597.22;;;13.10;80.46
36234;BME280;43467;50.890;5.982;2023-11-19T12:25:14;99624.91;;;13.33;80.23
36234;BME280;43467;50.890;5.982;2023-11-19T12:27:49;99618.31;;;13.26;79.93
36234;BME280;43467;50.890;5.982;2023-11-19T12:30:25;99633.75;;;13.33;80.21
36234;BME280;43467;50.890;5.982;2023-11-19T12:32:51;99632.59;;;13.37;80.22
36234;BME280;43467;50.890;5.982;2023-11-19T12:35:19;99629.41;;;13.32;80.05
36234;BME280;43467;50.890;5.982;2023-11-19T12:37:46;99597.56;;;13.18;79.92
36234;BME280;43467;50.890;5.982;2023-11-19T12:42:48;99588.78;;;13.30;79.11
36234;BME280;43467;50.890;5.982;2023-11-19T12:45:15;99579.09;;;13.29;78.43
36234;BME280;43467;50.890;5.982;2023-11-19T12:47:41;99562.06;;;13.19;77.79
36234;BME280;43467;50.890;5.982;2023-11-19T12:50:08;99616.06;;;13.59;77.82
36234;BME280;43467;50.890;5.982;2023-11-19T12:52:35;99607.75;;;13.51;77.66
36234;BME280;43467;50.890;5.982;2023-11-19T12:55:01;99608.31;;;13.56;77.22
36234;BME280;43467;50.890;5.982;2023-11-19T12:57:42;99565.72;;;13.43;76.44
36234;BME280;43467;50.890;5.982;2023-11-19T13:00:19;99584.56;;;13.66;76.44
36234;BME280;43467;50.890;5.982;2023-11-19T13:02:48;99563.41;;;13.64;74.90
36234;BME280;43467;50.890;5.982;2023-11-19T13:05:31;99567.09;;;13.62;74.17
36234;BME280;43467;50.890;5.982;2023-11-19T13:08:09;99566.38;;;13.60;74.45
36234;BME280;43467;50.890;5.982;2023-11-19T13:10:53;99602.91;;;13.95;74.17
36234;BME280;43467;50.890;5.982;2023-11-19T13:13:19;99596.72;;;13.95;73.22
36234;BME280;43467;50.890;5.982;2023-11-19T13:15:45;99572.03;;;13.80;73.05
36234;BME280;43467;50.890;5.982;2023-11-19T13:18:12;99586.06;;;13.82;72.87
36234;BME280;43467;50.890;5.982;2023-11-19T13:20:38;99600.00;;;13.86;72.78